This is the latest recevied weather packets stored in our database for station/object M8FSI-13. If no packets are shown the sender has not sent any weather packets the latest 10 day(s).
| Time | Temp. | Humidity | Pressure | Rain* | Wind** | Luminosity | Snow |
|---|---|---|---|---|---|---|---|
| 1777407921 | 12.22° C | 51% | 1022.8 hPa | 0 mm | - | - | - |
| 1777407320 | 12.78° C | 50% | 1022.6 hPa | 0 mm | - | - | - |
| 1777404341 | 13.33° C | 49% | 1022.2 hPa | 0 mm | - | - | - |
| 1777402521 | 13.89° C | 46% | 1022.2 hPa | 0 mm | - | - | - |
| 1777401920 | 14.44° C | 46% | 1022.2 hPa | 0 mm | - | - | - |
| 1777400720 | 15° C | 46% | 1022.3 hPa | 0 mm | - | - | - |
| 1777400121 | 15° C | 49% | 1022.3 hPa | 0 mm | - | - | - |
| 1777397722 | 15.56° C | 46% | 1021.8 hPa | 0 mm | - | - | - |
| 1777395334 | 16.11° C | 42% | 1021.8 hPa | 0 mm | - | - | - |
| 1777394740 | 16.67° C | 42% | 1021.9 hPa | 0 mm | - | - | - |
| 1777389939 | 17.22° C | 44% | 1021.9 hPa | 0 mm | - | - | - |
| 1777388120 | 17.22° C | 42% | 1022.2 hPa | 0 mm | - | - | - |
| 1777385736 | 17.22° C | 45% | 1022.4 hPa | 0 mm | - | - | - |
| 1777385135 | 17.22° C | 46% | 1022.6 hPa | 0 mm | - | - | - |
| 1777384519 | 16.67° C | 45% | 1022.8 hPa | 0 mm | - | - | - |
| 1777376740 | 13.33° C | 65% | 1024 hPa | 0 mm | - | - | - |
| 1777376119 | 13.33° C | 65% | 1024 hPa | 0 mm | - | - | - |
| 1777373740 | 12.78° C | 68% | 1024.3 hPa | 0 mm | - | - | - |
| 1777371319 | 12.78° C | 69% | 1024.6 hPa | 0 mm | - | - | - |
| 1777370144 | 13.33° C | 69% | 1024.4 hPa | 0 mm | - | - | - |
| 1777369519 | 13.33° C | 69% | 1024.3 hPa | 0 mm | - | - | - |
| 1777366554 | 13.33° C | 69% | 1024.2 hPa | 0 mm | - | - | - |
| 1777363558 | 10.56° C | 74% | 1024.1 hPa | 0 mm | - | - | - |
| 1777362320 | 10.56° C | 73% | 1024 hPa | 0 mm | - | - | - |
| 1777361119 | 10.56° C | 75% | 1024 hPa | 0 mm | - | - | - |
* Rain latest hour (hover to see other rain measurements)
** Current wind speed in m/s (hover to see current wind gust speed)